sensor_id;sensor_type;location;lat;lon;timestamp;P1;durP1;ratioP1;P2;durP2;ratioP2
60908;SDS011;46780;48.128;-1.704;2023-04-03T00:00:25;15.57;;;5.07;;
60908;SDS011;46780;48.128;-1.704;2023-04-03T00:02:52;13.93;;;4.40;;
60908;SDS011;46780;48.128;-1.704;2023-04-03T00:05:18;16.80;;;5.15;;
60908;SDS011;46780;48.128;-1.704;2023-04-03T00:07:44;16.42;;;4.95;;
60908;SDS011;46780;48.128;-1.704;2023-04-03T00:10:12;17.40;;;5.03;;
60908;SDS011;46780;48.128;-1.704;2023-04-03T00:12:39;12.98;;;4.90;;
60908;SDS011;46780;48.128;-1.704;2023-04-03T00:15:05;22.50;;;5.28;;
60908;SDS011;46780;48.128;-1.704;2023-04-03T00:17:32;12.52;;;4.97;;
60908;SDS011;46780;48.128;-1.704;2023-04-03T00:19:59;17.95;;;5.20;;
60908;SDS011;46780;48.128;-1.704;2023-04-03T00:22:25;19.85;;;5.00;;
60908;SDS011;46780;48.128;-1.704;2023-04-03T00:24:52;21.42;;;4.80;;
60908;SDS011;46780;48.128;-1.704;2023-04-03T00:27:19;14.63;;;5.00;;
60908;SDS011;46780;48.128;-1.704;2023-04-03T00:29:46;17.20;;;5.03;;
60908;SDS011;46780;48.128;-1.704;2023-04-03T00:32:12;18.30;;;4.97;;
60908;SDS011;46780;48.128;-1.704;2023-04-03T00:34:39;15.13;;;4.60;;
60908;SDS011;46780;48.128;-1.704;2023-04-03T00:37:05;17.02;;;5.03;;
60908;SDS011;46780;48.128;-1.704;2023-04-03T00:39:32;18.05;;;4.47;;
60908;SDS011;46780;48.128;-1.704;2023-04-03T00:41:58;14.35;;;4.60;;
60908;SDS011;46780;48.128;-1.704;2023-04-03T00:47:26;19.00;;;4.70;;
60908;SDS011;46780;48.128;-1.704;2023-04-03T00:49:53;13.95;;;4.55;;
60908;SDS011;46780;48.128;-1.704;2023-04-03T00:52:21;16.15;;;5.05;;
60908;SDS011;46780;48.128;-1.704;2023-04-03T00:54:51;18.50;;;4.57;;
60908;SDS011;46780;48.128;-1.704;2023-04-03T00:57:19;17.58;;;4.95;;
60908;SDS011;46780;48.128;-1.704;2023-04-03T00:59:48;17.60;;;4.47;;
60908;SDS011;46780;48.128;-1.704;2023-04-03T01:02:17;18.30;;;5.13;;
60908;SDS011;46780;48.128;-1.704;2023-04-03T01:04:45;16.05;;;4.55;;
60908;SDS011;46780;48.128;-1.704;2023-04-03T01:07:12;18.45;;;4.70;;
60908;SDS011;46780;48.128;-1.704;2023-04-03T01:09:41;16.92;;;4.55;;
60908;SDS011;46780;48.128;-1.704;2023-04-03T01:12:15;14.50;;;4.40;;
60908;SDS011;46780;48.128;-1.704;2023-04-03T01:14:43;20.98;;;4.40;;
60908;SDS011;46780;48.128;-1.704;2023-04-03T01:17:23;16.52;;;4.25;;
60908;SDS011;46780;48.128;-1.704;2023-04-03T01:19:57;16.33;;;4.40;;
60908;SDS011;46780;48.128;-1.704;2023-04-03T01:22:52;15.85;;;4.20;;
60908;SDS011;46780;48.128;-1.704;2023-04-03T01:25:24;18.85;;;4.55;;
60908;SDS011;46780;48.128;-1.704;2023-04-03T01:27:51;21.10;;;5.07;;
60908;SDS011;46780;48.128;-1.704;2023-04-03T01:30:18;16.17;;;4.70;;
60908;SDS011;46780;48.128;-1.704;2023-04-03T01:32:47;15.38;;;4.57;;
60908;SDS011;46780;48.128;-1.704;2023-04-03T01:35:14;15.55;;;4.60;;
60908;SDS011;46780;48.128;-1.704;2023-04-03T01:37:40;15.45;;;4.40;;
60908;SDS011;46780;48.128;-1.704;2023-04-03T01:40:07;18.45;;;4.97;;
60908;SDS011;46780;48.128;-1.704;2023-04-03T01:42:34;23.15;;;5.38;;
60908;SDS011;46780;48.128;-1.704;2023-04-03T01:45:00;19.00;;;5.05;;
60908;SDS011;46780;48.128;-1.704;2023-04-03T01:47:27;22.13;;;4.82;;
60908;SDS011;46780;48.128;-1.704;2023-04-03T01:49:55;16.52;;;4.70;;
60908;SDS011;46780;48.128;-1.704;2023-04-03T01:52:21;23.30;;;4.85;;
60908;SDS011;46780;48.128;-1.704;2023-04-03T01:54:48;18.70;;;4.93;;
60908;SDS011;46780;48.128;-1.704;2023-04-03T01:57:14;17.92;;;4.53;;
60908;SDS011;46780;48.128;-1.704;2023-04-03T01:59:40;17.05;;;4.18;;
60908;SDS011;46780;48.128;-1.704;2023-04-03T02:02:07;17.95;;;4.53;;
60908;SDS011;46780;48.128;-1.704;2023-04-03T02:04:33;15.77;;;4.43;;
60908;SDS011;46780;48.128;-1.704;2023-04-03T02:07:01;26.77;;;5.00;;
60908;SDS011;46780;48.128;-1.704;2023-04-03T02:09:28;18.05;;;4.30;;
60908;SDS011;46780;48.128;-1.704;2023-04-03T02:11:54;18.17;;;4.38;;
60908;SDS011;46780;48.128;-1.704;2023-04-03T02:14:21;16.65;;;4.32;;
60908;SDS011;46780;48.128;-1.704;2023-04-03T02:16:47;18.90;;;4.47;;
60908;SDS011;46780;48.128;-1.704;2023-04-03T02:19:14;19.50;;;4.18;;
60908;SDS011;46780;48.128;-1.704;2023-04-03T02:21:40;21.70;;;4.50;;
60908;SDS011;46780;48.128;-1.704;2023-04-03T02:24:08;18.52;;;3.92;;
60908;SDS011;46780;48.128;-1.704;2023-04-03T02:26:34;23.73;;;4.32;;
60908;SDS011;46780;48.128;-1.704;2023-04-03T02:29:01;18.83;;;4.00;;
60908;SDS011;46780;48.128;-1.704;2023-04-03T02:31:27;16.38;;;4.38;;
60908;SDS011;46780;48.128;-1.704;2023-04-03T02:33:54;20.52;;;4.28;;
60908;SDS011;46780;48.128;-1.704;2023-04-03T02:36:20;22.25;;;4.35;;
60908;SDS011;46780;48.128;-1.704;2023-04-03T02:38:46;17.90;;;4.18;;
60908;SDS011;46780;48.128;-1.704;2023-04-03T02:41:14;16.52;;;4.10;;
60908;SDS011;46780;48.128;-1.704;2023-04-03T02:43:41;15.10;;;3.92;;
60908;SDS011;46780;48.128;-1.704;2023-04-03T02:46:07;21.02;;;4.20;;
60908;SDS011;46780;48.128;-1.704;2023-04-03T02:48:34;21.55;;;4.43;;
60908;SDS011;46780;48.128;-1.704;2023-04-03T02:51:01;20.65;;;4.68;;
60908;SDS011;46780;48.128;-1.704;2023-04-03T02:53:27;20.67;;;4.07;;
60908;SDS011;46780;48.128;-1.704;2023-04-03T02:55:54;26.27;;;4.43;;
60908;SDS011;46780;48.128;-1.704;2023-04-03T02:58:21;21.35;;;4.40;;
60908;SDS011;46780;48.128;-1.704;2023-04-03T03:00:48;19.45;;;4.25;;
60908;SDS011;46780;48.128;-1.704;2023-04-03T03:03:14;20.50;;;4.72;;
60908;SDS011;46780;48.128;-1.704;2023-04-03T03:05:41;24.25;;;5.18;;
60908;SDS011;46780;48.128;-1.704;2023-04-03T03:08:07;19.10;;;4.20;;
60908;SDS011;46780;48.128;-1.704;2023-04-03T03:10:34;24.50;;;4.53;;
60908;SDS011;46780;48.128;-1.704;2023-04-03T03:13:00;19.48;;;4.40;;
60908;SDS011;46780;48.128;-1.704;2023-04-03T03:15:28;22.65;;;4.82;;
60908;SDS011;46780;48.128;-1.704;2023-04-03T03:17:55;20.70;;;4.47;;
60908;SDS011;46780;48.128;-1.704;2023-04-03T03:20:21;15.63;;;4.38;;
60908;SDS011;46780;48.128;-1.704;2023-04-03T03:22:48;15.77;;;4.53;;
60908;SDS011;46780;48.128;-1.704;2023-04-03T03:25:14;18.10;;;4.57;;
60908;SDS011;46780;48.128;-1.704;2023-04-03T03:27:41;25.30;;;4.85;;
60908;SDS011;46780;48.128;-1.704;2023-04-03T03:30:07;16.70;;;4.43;;
60908;SDS011;46780;48.128;-1.704;2023-04-03T03:32:36;23.33;;;5.22;;
60908;SDS011;46780;48.128;-1.704;2023-04-03T03:35:02;24.40;;;4.93;;
60908;SDS011;46780;48.128;-1.704;2023-04-03T03:37:29;20.33;;;4.50;;
60908;SDS011;46780;48.128;-1.704;2023-04-03T03:39:55;21.27;;;4.55;;
60908;SDS011;46780;48.128;-1.704;2023-04-03T03:42:22;21.25;;;4.50;;
60908;SDS011;46780;48.128;-1.704;2023-04-03T03:44:48;18.48;;;4.65;;
60908;SDS011;46780;48.128;-1.704;2023-04-03T03:47:14;19.15;;;4.40;;
60908;SDS011;46780;48.128;-1.704;2023-04-03T03:49:42;23.60;;;5.03;;
60908;SDS011;46780;48.128;-1.704;2023-04-03T03:52:09;20.73;;;5.28;;
60908;SDS011;46780;48.128;-1.704;2023-04-03T03:54:35;22.23;;;4.90;;
60908;SDS011;46780;48.128;-1.704;2023-04-03T03:57:02;19.65;;;5.57;;
60908;SDS011;46780;48.128;-1.704;2023-04-03T03:59:28;20.88;;;4.60;;
60908;SDS011;46780;48.128;-1.704;2023-04-03T04:01:55;29.00;;;8.77;;
60908;SDS011;46780;48.128;-1.704;2023-04-03T04:04:21;17.17;;;4.20;;
60908;SDS011;46780;48.128;-1.704;2023-04-03T04:06:49;20.70;;;4.63;;
60908;SDS011;46780;48.128;-1.704;2023-04-03T04:09:15;30.25;;;11.60;;
60908;SDS011;46780;48.128;-1.704;2023-04-03T04:11:42;30.90;;;9.77;;
60908;SDS011;46780;48.128;-1.704;2023-04-03T04:14:08;21.65;;;6.00;;
60908;SDS011;46780;48.128;-1.704;2023-04-03T04:16:35;19.58;;;5.43;;
60908;SDS011;46780;48.128;-1.704;2023-04-03T04:19:01;26.73;;;8.10;;
60908;SDS011;46780;48.128;-1.704;2023-04-03T04:21:28;31.00;;;10.93;;
60908;SDS011;46780;48.128;-1.704;2023-04-03T04:23:55;31.38;;;12.23;;
60908;SDS011;46780;48.128;-1.704;2023-04-03T04:26:22;21.10;;;7.25;;
60908;SDS011;46780;48.128;-1.704;2023-04-03T04:28:48;21.02;;;5.32;;
60908;SDS011;46780;48.128;-1.704;2023-04-03T04:31:15;15.68;;;4.30;;
60908;SDS011;46780;48.128;-1.704;2023-04-03T04:33:41;23.60;;;4.82;;
60908;SDS011;46780;48.128;-1.704;2023-04-03T04:36:07;15.57;;;4.57;;
60908;SDS011;46780;48.128;-1.704;2023-04-03T04:38:34;19.73;;;4.63;;
60908;SDS011;46780;48.128;-1.704;2023-04-03T04:41:02;17.80;;;4.95;;
60908;SDS011;46780;48.128;-1.704;2023-04-03T04:43:28;21.88;;;4.50;;
60908;SDS011;46780;48.128;-1.704;2023-04-03T04:46:01;23.38;;;5.32;;
60908;SDS011;46780;48.128;-1.704;2023-04-03T04:48:29;16.33;;;4.93;;
60908;SDS011;46780;48.128;-1.704;2023-04-03T04:50:55;20.08;;;4.50;;
60908;SDS011;46780;48.128;-1.704;2023-04-03T04:53:22;20.13;;;4.53;;
60908;SDS011;46780;48.128;-1.704;2023-04-03T04:55:48;23.92;;;5.32;;
60908;SDS011;46780;48.128;-1.704;2023-04-03T04:58:16;19.92;;;4.72;;
60908;SDS011;46780;48.128;-1.704;2023-04-03T05:00:43;22.88;;;5.50;;
60908;SDS011;46780;48.128;-1.704;2023-04-03T05:03:09;24.90;;;5.20;;
60908;SDS011;46780;48.128;-1.704;2023-04-03T05:05:36;15.45;;;4.57;;
60908;SDS011;46780;48.128;-1.704;2023-04-03T05:08:03;18.48;;;4.95;;
60908;SDS011;46780;48.128;-1.704;2023-04-03T05:10:29;17.25;;;5.10;;
60908;SDS011;46780;48.128;-1.704;2023-04-03T05:12:56;21.90;;;5.28;;
60908;SDS011;46780;48.128;-1.704;2023-04-03T05:15:24;20.58;;;5.20;;
60908;SDS011;46780;48.128;-1.704;2023-04-03T05:17:51;18.52;;;5.35;;
60908;SDS011;46780;48.128;-1.704;2023-04-03T05:20:18;20.45;;;5.13;;
60908;SDS011;46780;48.128;-1.704;2023-04-03T05:22:44;18.92;;;5.10;;
60908;SDS011;46780;48.128;-1.704;2023-04-03T05:25:10;18.17;;;5.22;;
60908;SDS011;46780;48.128;-1.704;2023-04-03T05:27:37;24.90;;;5.57;;
60908;SDS011;46780;48.128;-1.704;2023-04-03T05:30:03;20.33;;;5.43;;
60908;SDS011;46780;48.128;-1.704;2023-04-03T05:32:32;22.60;;;5.90;;
60908;SDS011;46780;48.128;-1.704;2023-04-03T05:34:59;14.52;;;5.25;;
60908;SDS011;46780;48.128;-1.704;2023-04-03T05:37:25;17.98;;;5.35;;
60908;SDS011;46780;48.128;-1.704;2023-04-03T05:39:51;19.33;;;5.65;;
60908;SDS011;46780;48.128;-1.704;2023-04-03T05:42:18;22.25;;;6.35;;
60908;SDS011;46780;48.128;-1.704;2023-04-03T05:44:44;20.42;;;5.57;;
60908;SDS011;46780;48.128;-1.704;2023-04-03T05:47:11;17.95;;;5.13;;
60908;SDS011;46780;48.128;-1.704;2023-04-03T05:49:40;21.35;;;5.72;;
60908;SDS011;46780;48.128;-1.704;2023-04-03T05:52:09;24.77;;;6.28;;
60908;SDS011;46780;48.128;-1.704;2023-04-03T05:54:43;21.88;;;6.03;;
60908;SDS011;46780;48.128;-1.704;2023-04-03T05:57:09;20.65;;;6.30;;
60908;SDS011;46780;48.128;-1.704;2023-04-03T05:59:36;17.70;;;6.40;;
60908;SDS011;46780;48.128;-1.704;2023-04-03T06:02:02;20.02;;;6.07;;
60908;SDS011;46780;48.128;-1.704;2023-04-03T06:04:29;19.60;;;6.38;;
60908;SDS011;46780;48.128;-1.704;2023-04-03T06:06:57;21.67;;;6.70;;
60908;SDS011;46780;48.128;-1.704;2023-04-03T06:09:24;18.65;;;5.90;;
60908;SDS011;46780;48.128;-1.704;2023-04-03T06:11:52;23.63;;;6.10;;
60908;SDS011;46780;48.128;-1.704;2023-04-03T06:14:19;20.52;;;6.25;;
60908;SDS011;46780;48.128;-1.704;2023-04-03T06:16:45;23.02;;;6.53;;
60908;SDS011;46780;48.128;-1.704;2023-04-03T06:19:12;26.20;;;7.07;;
60908;SDS011;46780;48.128;-1.704;2023-04-03T06:21:38;17.52;;;6.47;;
60908;SDS011;46780;48.128;-1.704;2023-04-03T06:24:06;24.02;;;7.10;;
60908;SDS011;46780;48.128;-1.704;2023-04-03T06:26:33;22.63;;;7.53;;
60908;SDS011;46780;48.128;-1.704;2023-04-03T06:29:00;17.85;;;7.40;;
60908;SDS011;46780;48.128;-1.704;2023-04-03T06:31:26;20.55;;;7.68;;
60908;SDS011;46780;48.128;-1.704;2023-04-03T06:33:53;19.58;;;7.55;;
60908;SDS011;46780;48.128;-1.704;2023-04-03T06:36:19;18.35;;;7.57;;
60908;SDS011;46780;48.128;-1.704;2023-04-03T06:38:46;18.65;;;7.35;;
60908;SDS011;46780;48.128;-1.704;2023-04-03T06:41:15;24.25;;;7.38;;
60908;SDS011;46780;48.128;-1.704;2023-04-03T06:43:41;18.05;;;7.88;;
60908;SDS011;46780;48.128;-1.704;2023-04-03T06:46:10;21.60;;;7.38;;
60908;SDS011;46780;48.128;-1.704;2023-04-03T06:48:40;21.75;;;7.80;;
60908;SDS011;46780;48.128;-1.704;2023-04-03T06:51:06;24.35;;;7.75;;
60908;SDS011;46780;48.128;-1.704;2023-04-03T06:53:34;20.45;;;8.43;;
60908;SDS011;46780;48.128;-1.704;2023-04-03T06:56:00;20.83;;;8.10;;
60908;SDS011;46780;48.128;-1.704;2023-04-03T06:58:28;22.90;;;8.05;;
60908;SDS011;46780;48.128;-1.704;2023-04-03T07:00:54;20.77;;;8.25;;
60908;SDS011;46780;48.128;-1.704;2023-04-03T07:03:21;21.60;;;7.97;;
60908;SDS011;46780;48.128;-1.704;2023-04-03T07:05:47;18.00;;;8.57;;
60908;SDS011;46780;48.128;-1.704;2023-04-03T07:08:13;22.48;;;9.35;;
60908;SDS011;46780;48.128;-1.704;2023-04-03T07:10:40;20.70;;;8.80;;
60908;SDS011;46780;48.128;-1.704;2023-04-03T07:13:06;21.77;;;8.57;;
60908;SDS011;46780;48.128;-1.704;2023-04-03T07:15:34;18.77;;;9.10;;
60908;SDS011;46780;48.128;-1.704;2023-04-03T07:18:00;19.67;;;9.35;;
60908;SDS011;46780;48.128;-1.704;2023-04-03T07:20:27;21.20;;;8.90;;
60908;SDS011;46780;48.128;-1.704;2023-04-03T07:22:53;22.67;;;9.05;;
60908;SDS011;46780;48.128;-1.704;2023-04-03T07:25:20;20.48;;;9.63;;
60908;SDS011;46780;48.128;-1.704;2023-04-03T07:27:46;24.65;;;10.35;;
60908;SDS011;46780;48.128;-1.704;2023-04-03T07:30:13;20.00;;;9.70;;
60908;SDS011;46780;48.128;-1.704;2023-04-03T07:32:41;21.23;;;10.00;;
60908;SDS011;46780;48.128;-1.704;2023-04-03T07:35:08;21.95;;;9.90;;
60908;SDS011;46780;48.128;-1.704;2023-04-03T07:37:34;19.55;;;9.32;;
60908;SDS011;46780;48.128;-1.704;2023-04-03T07:40:01;20.20;;;9.90;;
60908;SDS011;46780;48.128;-1.704;2023-04-03T07:42:27;21.02;;;10.15;;
60908;SDS011;46780;48.128;-1.704;2023-04-03T07:44:54;23.40;;;10.93;;
60908;SDS011;46780;48.128;-1.704;2023-04-03T07:47:20;23.02;;;10.52;;
60908;SDS011;46780;48.128;-1.704;2023-04-03T07:49:48;23.70;;;10.90;;
60908;SDS011;46780;48.128;-1.704;2023-04-03T07:52:14;21.55;;;11.20;;
60908;SDS011;46780;48.128;-1.704;2023-04-03T07:54:41;22.38;;;10.93;;
60908;SDS011;46780;48.128;-1.704;2023-04-03T07:57:07;23.77;;;10.95;;
60908;SDS011;46780;48.128;-1.704;2023-04-03T07:59:34;22.88;;;11.35;;
60908;SDS011;46780;48.128;-1.704;2023-04-03T08:02:00;24.00;;;11.77;;
60908;SDS011;46780;48.128;-1.704;2023-04-03T08:04:27;23.33;;;12.48;;
60908;SDS011;46780;48.128;-1.704;2023-04-03T08:06:55;22.45;;;11.95;;
60908;SDS011;46780;48.128;-1.704;2023-04-03T08:09:21;21.70;;;11.85;;
60908;SDS011;46780;48.128;-1.704;2023-04-03T08:11:47;23.52;;;12.02;;
60908;SDS011;46780;48.128;-1.704;2023-04-03T08:14:14;27.20;;;12.88;;
60908;SDS011;46780;48.128;-1.704;2023-04-03T08:16:40;23.23;;;12.25;;
60908;SDS011;46780;48.128;-1.704;2023-04-03T08:19:08;25.02;;;12.98;;
60908;SDS011;46780;48.128;-1.704;2023-04-03T08:21:34;27.13;;;13.35;;
60908;SDS011;46780;48.128;-1.704;2023-04-03T08:24:02;24.85;;;12.90;;
60908;SDS011;46780;48.128;-1.704;2023-04-03T08:26:29;25.25;;;13.50;;
60908;SDS011;46780;48.128;-1.704;2023-04-03T08:28:55;24.00;;;13.55;;
60908;SDS011;46780;48.128;-1.704;2023-04-03T08:31:22;26.10;;;13.93;;
60908;SDS011;46780;48.128;-1.704;2023-04-03T08:33:48;26.83;;;14.02;;
60908;SDS011;46780;48.128;-1.704;2023-04-03T08:36:17;23.90;;;14.02;;
60908;SDS011;46780;48.128;-1.704;2023-04-03T08:38:44;24.98;;;13.65;;
60908;SDS011;46780;48.128;-1.704;2023-04-03T08:41:14;25.75;;;13.65;;
60908;SDS011;46780;48.128;-1.704;2023-04-03T08:46:37;26.02;;;13.85;;
60908;SDS011;46780;48.128;-1.704;2023-04-03T08:49:13;24.33;;;13.10;;
60908;SDS011;46780;48.128;-1.704;2023-04-03T08:51:45;25.55;;;14.35;;
60908;SDS011;46780;48.128;-1.704;2023-04-03T08:54:16;28.42;;;14.98;;
60908;SDS011;46780;48.128;-1.704;2023-04-03T08:56:57;25.45;;;14.23;;
60908;SDS011;46780;48.128;-1.704;2023-04-03T08:59:28;25.15;;;14.07;;
60908;SDS011;46780;48.128;-1.704;2023-04-03T09:04:26;27.20;;;13.93;;
60908;SDS011;46780;48.128;-1.704;2023-04-03T09:06:57;28.38;;;13.77;;
60908;SDS011;46780;48.128;-1.704;2023-04-03T09:09:30;26.08;;;14.00;;
60908;SDS011;46780;48.128;-1.704;2023-04-03T09:12:03;29.73;;;15.18;;
60908;SDS011;46780;48.128;-1.704;2023-04-03T09:14:36;27.80;;;15.15;;
60908;SDS011;46780;48.128;-1.704;2023-04-03T09:17:09;27.17;;;14.70;;
60908;SDS011;46780;48.128;-1.704;2023-04-03T09:19:47;31.83;;;14.80;;
60908;SDS011;46780;48.128;-1.704;2023-04-03T09:22:21;24.48;;;14.25;;
60908;SDS011;46780;48.128;-1.704;2023-04-03T09:24:50;28.83;;;14.68;;
60908;SDS011;46780;48.128;-1.704;2023-04-03T09:27:24;27.40;;;14.40;;
60908;SDS011;46780;48.128;-1.704;2023-04-03T09:29:52;30.88;;;15.05;;
60908;SDS011;46780;48.128;-1.704;2023-04-03T09:32:21;30.57;;;15.03;;
60908;SDS011;46780;48.128;-1.704;2023-04-03T09:34:52;31.23;;;15.85;;
60908;SDS011;46780;48.128;-1.704;2023-04-03T09:37:35;31.35;;;15.10;;
60908;SDS011;46780;48.128;-1.704;2023-04-03T09:40:04;31.25;;;15.48;;
60908;SDS011;46780;48.128;-1.704;2023-04-03T09:42:33;34.15;;;15.82;;
60908;SDS011;46780;48.128;-1.704;2023-04-03T09:45:18;30.10;;;15.88;;
60908;SDS011;46780;48.128;-1.704;2023-04-03T09:47:49;28.33;;;14.95;;
60908;SDS011;46780;48.128;-1.704;2023-04-03T09:50:31;29.85;;;15.57;;
60908;SDS011;46780;48.128;-1.704;2023-04-03T09:52:57;26.33;;;14.25;;
60908;SDS011;46780;48.128;-1.704;2023-04-03T09:55:25;29.45;;;15.23;;
60908;SDS011;46780;48.128;-1.704;2023-04-03T09:57:54;28.88;;;14.93;;
60908;SDS011;46780;48.128;-1.704;2023-04-03T10:00:23;31.73;;;16.38;;
60908;SDS011;46780;48.128;-1.704;2023-04-03T10:02:53;33.28;;;16.33;;
60908;SDS011;46780;48.128;-1.704;2023-04-03T10:05:28;35.35;;;16.50;;
60908;SDS011;46780;48.128;-1.704;2023-04-03T10:08:10;32.15;;;16.65;;
60908;SDS011;46780;48.128;-1.704;2023-04-03T10:10:46;31.30;;;14.90;;
60908;SDS011;46780;48.128;-1.704;2023-04-03T10:13:16;30.25;;;15.82;;
60908;SDS011;46780;48.128;-1.704;2023-04-03T10:15:44;28.05;;;15.00;;
60908;SDS011;46780;48.128;-1.704;2023-04-03T10:18:19;30.80;;;15.60;;
60908;SDS011;46780;48.128;-1.704;2023-04-03T10:20:54;31.63;;;15.60;;
60908;SDS011;46780;48.128;-1.704;2023-04-03T10:23:26;30.92;;;15.82;;
60908;SDS011;46780;48.128;-1.704;2023-04-03T10:26:01;29.95;;;15.80;;
60908;SDS011;46780;48.128;-1.704;2023-04-03T10:28:38;30.60;;;15.40;;
60908;SDS011;46780;48.128;-1.704;2023-04-03T10:31:12;29.48;;;15.48;;
60908;SDS011;46780;48.128;-1.704;2023-04-03T10:33:47;31.33;;;16.08;;
60908;SDS011;46780;48.128;-1.704;2023-04-03T10:36:29;35.28;;;16.38;;
60908;SDS011;46780;48.128;-1.704;2023-04-03T10:39:08;32.58;;;17.05;;
60908;SDS011;46780;48.128;-1.704;2023-04-03T10:41:45;35.92;;;16.80;;
60908;SDS011;46780;48.128;-1.704;2023-04-03T10:44:24;32.03;;;17.13;;
60908;SDS011;46780;48.128;-1.704;2023-04-03T10:47:05;32.42;;;16.63;;
60908;SDS011;46780;48.128;-1.704;2023-04-03T10:49:43;32.22;;;16.98;;
60908;SDS011;46780;48.128;-1.704;2023-04-03T10:52:17;36.25;;;17.55;;
60908;SDS011;46780;48.128;-1.704;2023-04-03T10:54:49;33.50;;;16.50;;
60908;SDS011;46780;48.128;-1.704;2023-04-03T10:57:23;34.22;;;17.05;;
60908;SDS011;46780;48.128;-1.704;2023-04-03T10:59:53;32.65;;;17.75;;
60908;SDS011;46780;48.128;-1.704;2023-04-03T11:02:23;32.33;;;16.75;;
60908;SDS011;46780;48.128;-1.704;2023-04-03T11:04:51;33.97;;;17.33;;
60908;SDS011;46780;48.128;-1.704;2023-04-03T11:07:21;32.05;;;16.80;;
60908;SDS011;46780;48.128;-1.704;2023-04-03T11:09:49;31.80;;;17.30;;
60908;SDS011;46780;48.128;-1.704;2023-04-03T11:12:21;35.25;;;17.20;;
60908;SDS011;46780;48.128;-1.704;2023-04-03T11:14:53;39.38;;;17.42;;
60908;SDS011;46780;48.128;-1.704;2023-04-03T11:17:25;32.20;;;17.67;;
60908;SDS011;46780;48.128;-1.704;2023-04-03T11:19:59;32.95;;;17.92;;
60908;SDS011;46780;48.128;-1.704;2023-04-03T11:22:32;32.28;;;18.55;;
60908;SDS011;46780;48.128;-1.704;2023-04-03T11:25:02;34.08;;;19.35;;
60908;SDS011;46780;48.128;-1.704;2023-04-03T11:27:33;30.88;;;17.83;;
60908;SDS011;46780;48.128;-1.704;2023-04-03T11:30:07;28.23;;;17.45;;
60908;SDS011;46780;48.128;-1.704;2023-04-03T11:32:49;28.27;;;17.30;;
60908;SDS011;46780;48.128;-1.704;2023-04-03T11:35:51;26.15;;;17.58;;
60908;SDS011;46780;48.128;-1.704;2023-04-03T11:38:21;28.58;;;17.42;;
60908;SDS011;46780;48.128;-1.704;2023-04-03T11:40:51;28.20;;;18.25;;
60908;SDS011;46780;48.128;-1.704;2023-04-03T11:43:23;23.45;;;16.20;;
60908;SDS011;46780;48.128;-1.704;2023-04-03T11:45:54;22.23;;;15.98;;
60908;SDS011;46780;48.128;-1.704;2023-04-03T11:48:43;21.05;;;15.18;;
60908;SDS011;46780;48.128;-1.704;2023-04-03T11:54:35;20.08;;;15.07;;
60908;SDS011;46780;48.128;-1.704;2023-04-03T12:00:48;18.20;;;14.00;;
60908;SDS011;46780;48.128;-1.704;2023-04-03T12:03:30;17.27;;;12.95;;
60908;SDS011;46780;48.128;-1.704;2023-04-03T12:09:22;16.77;;;12.07;;
60908;SDS011;46780;48.128;-1.704;2023-04-03T12:11:51;16.98;;;12.00;;
60908;SDS011;46780;48.128;-1.704;2023-04-03T12:14:18;14.23;;;10.77;;
60908;SDS011;46780;48.128;-1.704;2023-04-03T12:16:48;13.48;;;10.80;;
60908;SDS011;46780;48.128;-1.704;2023-04-03T12:19:29;13.32;;;9.90;;
60908;SDS011;46780;48.128;-1.704;2023-04-03T12:22:09;13.43;;;9.60;;
60908;SDS011;46780;48.128;-1.704;2023-04-03T12:24:38;11.57;;;9.23;;
60908;SDS011;46780;48.128;-1.704;2023-04-03T12:29:59;13.48;;;9.13;;
60908;SDS011;46780;48.128;-1.704;2023-04-03T12:32:45;12.55;;;9.15;;
60908;SDS011;46780;48.128;-1.704;2023-04-03T12:35:31;12.80;;;8.47;;
60908;SDS011;46780;48.128;-1.704;2023-04-03T12:44:00;10.95;;;7.28;;
60908;SDS011;46780;48.128;-1.704;2023-04-03T12:46:35;10.18;;;7.78;;
60908;SDS011;46780;48.128;-1.704;2023-04-03T12:49:12;10.00;;;7.68;;
60908;SDS011;46780;48.128;-1.704;2023-04-03T12:51:46;9.20;;;6.72;;
60908;SDS011;46780;48.128;-1.704;2023-04-03T12:54:14;10.13;;;7.10;;
60908;SDS011;46780;48.128;-1.704;2023-04-03T12:56:44;10.93;;;6.80;;
60908;SDS011;46780;48.128;-1.704;2023-04-03T12:59:15;11.80;;;6.70;;
60908;SDS011;46780;48.128;-1.704;2023-04-03T13:01:42;9.80;;;6.68;;
60908;SDS011;46780;48.128;-1.704;2023-04-03T13:04:11;11.50;;;6.90;;
60908;SDS011;46780;48.128;-1.704;2023-04-03T13:06:38;10.25;;;6.70;;
60908;SDS011;46780;48.128;-1.704;2023-04-03T13:09:06;9.10;;;6.40;;
60908;SDS011;46780;48.128;-1.704;2023-04-03T13:11:44;9.25;;;6.53;;
60908;SDS011;46780;48.128;-1.704;2023-04-03T13:14:14;9.80;;;6.55;;
60908;SDS011;46780;48.128;-1.704;2023-04-03T13:16:52;10.45;;;6.53;;
60908;SDS011;46780;48.128;-1.704;2023-04-03T13:19:22;9.60;;;6.40;;
60908;SDS011;46780;48.128;-1.704;2023-04-03T13:21:49;9.25;;;6.68;;
60908;SDS011;46780;48.128;-1.704;2023-04-03T13:24:22;9.38;;;6.40;;
60908;SDS011;46780;48.128;-1.704;2023-04-03T13:26:49;9.43;;;6.50;;
60908;SDS011;46780;48.128;-1.704;2023-04-03T13:29:19;10.00;;;6.60;;
60908;SDS011;46780;48.128;-1.704;2023-04-03T13:31:52;9.45;;;6.38;;
60908;SDS011;46780;48.128;-1.704;2023-04-03T13:34:21;10.75;;;6.68;;
60908;SDS011;46780;48.128;-1.704;2023-04-03T13:36:55;10.05;;;6.22;;
60908;SDS011;46780;48.128;-1.704;2023-04-03T13:39:23;10.05;;;6.35;;
60908;SDS011;46780;48.128;-1.704;2023-04-03T13:41:51;8.82;;;6.03;;
60908;SDS011;46780;48.128;-1.704;2023-04-03T13:44:32;10.75;;;6.72;;
60908;SDS011;46780;48.128;-1.704;2023-04-03T13:47:01;10.15;;;6.10;;
60908;SDS011;46780;48.128;-1.704;2023-04-03T13:49:44;9.52;;;6.20;;
60908;SDS011;46780;48.128;-1.704;2023-04-03T13:52:24;11.57;;;6.00;;
60908;SDS011;46780;48.128;-1.704;2023-04-03T13:54:54;8.95;;;6.25;;
60908;SDS011;46780;48.128;-1.704;2023-04-03T13:57:23;9.77;;;6.20;;
60908;SDS011;46780;48.128;-1.704;2023-04-03T13:59:49;10.32;;;6.00;;
60908;SDS011;46780;48.128;-1.704;2023-04-03T14:02:18;9.15;;;6.18;;
60908;SDS011;46780;48.128;-1.704;2023-04-03T14:04:50;10.07;;;5.95;;
60908;SDS011;46780;48.128;-1.704;2023-04-03T14:07:19;9.18;;;6.20;;
60908;SDS011;46780;48.128;-1.704;2023-04-03T14:09:45;8.93;;;6.30;;
60908;SDS011;46780;48.128;-1.704;2023-04-03T14:12:13;9.07;;;6.50;;
60908;SDS011;46780;48.128;-1.704;2023-04-03T14:14:44;9.18;;;6.00;;
60908;SDS011;46780;48.128;-1.704;2023-04-03T14:17:13;11.02;;;6.53;;
60908;SDS011;46780;48.128;-1.704;2023-04-03T14:19:41;8.82;;;5.75;;
60908;SDS011;46780;48.128;-1.704;2023-04-03T14:22:12;9.45;;;5.80;;
60908;SDS011;46780;48.128;-1.704;2023-04-03T14:24:41;9.45;;;6.50;;
60908;SDS011;46780;48.128;-1.704;2023-04-03T14:27:10;9.07;;;5.95;;
60908;SDS011;46780;48.128;-1.704;2023-04-03T14:29:40;10.18;;;6.15;;
60908;SDS011;46780;48.128;-1.704;2023-04-03T14:32:07;9.45;;;6.25;;
60908;SDS011;46780;48.128;-1.704;2023-04-03T14:34:36;9.25;;;6.45;;
60908;SDS011;46780;48.128;-1.704;2023-04-03T14:37:04;9.50;;;6.57;;
60908;SDS011;46780;48.128;-1.704;2023-04-03T14:39:32;10.35;;;6.70;;
60908;SDS011;46780;48.128;-1.704;2023-04-03T14:41:58;10.93;;;6.30;;
60908;SDS011;46780;48.128;-1.704;2023-04-03T14:44:25;10.45;;;6.18;;
60908;SDS011;46780;48.128;-1.704;2023-04-03T14:46:51;9.38;;;6.43;;
60908;SDS011;46780;48.128;-1.704;2023-04-03T14:49:19;10.15;;;6.68;;
60908;SDS011;46780;48.128;-1.704;2023-04-03T14:51:47;10.20;;;6.22;;
60908;SDS011;46780;48.128;-1.704;2023-04-03T14:54:15;9.68;;;6.20;;
60908;SDS011;46780;48.128;-1.704;2023-04-03T14:56:44;11.27;;;7.47;;